ProRodeoTv.Com
Red

PRCA Stock Statistics

SEARCH BY:
Stock Rodeo Contestant Stock Contractor

Logan Patterson

EVENT:
Unofficial results reflect placement at time of Web posting and can change.

SEASON BREAKDOWN

Season Attempts Qual Rides Re-rides Ride %
2017 76 56 0 73.68 %
2016 59 47 0 79.66 %
Totals 135 103 0 0.00 %

RODEO DETAIL

Date Location Rodeo SC Brand Ride Comments Stock Score Contestant Score
9/30/2017 Mona, UT Young Living PRCA Rodeo BT 51+ 79.50 20.00 / 19.50 20.00 / 20.00
9/24/2017 Stephenville, TX Cowboy Capital Of The World PRCA Rodeo PK 895 0.00 20.00 / 22.00 0.00 / 0.00
9/23/2017 Apache, OK Apache Stampede MT 2 78.00 20.00 / 20.00 17.00 / 21.00
9/21/2017 Amarillo, TX Amarillo Tri-State Fair And Rodeo AN H11 0.00 21.00 / 19.00 0.00 / 0.00
9/14/2017 St. George, UT Dixie Roundup BT 7+3 74.00 17.00 / 19.00 19.00 / 19.00
9/14/2017 Pendleton, OR Pendleton Round-Up SA 835 0.00 21.00 / 21.50 0.00 / 0.00
9/12/2017 Albuquerque, NM New Mexico State Fair & Rodeo CB T38 82.00 20.00 / 20.00 21.00 / 21.00
9/8/2017 Salt Lake City, UT Utah s Own Rodeo At The Utah State Fair BT A+6 79.50 19.50 / 19.00 20.00 / 21.00
9/8/2017 Lewiston, ID Lewiston Roundup SA 108 76.50 20.50 / 21.00 17.00 / 18.00
9/5/2017 Blackfoot, ID Gem State Classic Pro Rodeo PR 697 0.00 23.00 / 23.50 0.00 / 0.00
9/4/2017 Parowan, UT Iron County Fair and PRCA Rodeo BT 9M2 73.00 18.00 / 16.00 20.00 / 19.00
9/3/2017 Evanston, WY Evanston Cowboy Days Inc BT 4W5 75.00 20.00 / 20.00 19.00 / 16.00
9/2/2017 Dillon, MT Montana s Biggest Weekend SA 237 75.00 19.00 / 17.00 21.00 / 18.00
8/31/2017 Filer, ID Magic Valley Stampede SA 806 71.00 18.00 / 17.00 18.00 / 18.00
8/28/2017 Pueblo, CO Colorado State Fair & Rodeo RM V12 59.00 23.00 / 21.00 8.00 / 7.00
8/26/2017 Tremonton, UT Golden Spike Rodeo BT 8+5 68.00 17.00 / 19.00 14.00 / 18.00
8/25/2017 Altus, OK Great Plains Stampede Rodeo AN A54 0.00 21.00 / 21.50 0.00 / 0.00
8/24/2017 Vinita, OK Will Rogers Memorial Rodeo RH 01 0.00 21.50 / 22.00 0.00 / 0.00
8/23/2017 Alex, OK Doxa Extreme Rodeo BF 131 59.50 20.50 / 19.50 9.50 / 10.00
8/18/2017 Gooding, ID Gooding Pro Rodeo SM 87 0.00 19.00 / 18.00 0.00 / 0.00
8/17/2017 Caldwell, ID Caldwell Night Rodeo BH 830 73.00 17.00 / 17.00 21.00 / 18.00
8/16/2017 Canby, OR Canby Rodeo BS A43 0.00 21.50 / 21.00 0.00 / 0.00
8/14/2017 Lynden, WA Lynden PRCA Rodeo C5 T38 76.00 19.00 / 20.00 19.00 / 18.00
8/13/2017 Kimball, NE Kimball - Banner Rodeo LH V7 76.00 20.00 / 20.00 17.00 / 19.00
8/12/2017 Coalville, UT Summit County Fair & Rodeo DG D937 0.00 20.00 / 22.00 0.00 / 0.00
Page of 4
Per Page
 
 
 
Copyright © 2017 Professional Rodeo Cowboys Association. All rights reserved. No portion of ProRodeo.com may be duplicated, redistributed or manipulated in any form. By accessing any information beyond this page, you agree to abide by the Terms of Use.
PRCA Wrangler National Finals Rodeo Wrangler Champions Challenge Justin Boots Playoffs Xtreme Bulls RAM National Circuit Finals Rodeo ProRodeo Gear ProRodeoTv.com var gaJsHost = (("https:" == document.location.protocol) ? "https://ssl." : "http://www."); document.write(unescape("%3Cscript src='" + gaJsHost + "google-analytics.com/ga.js' type='text/javascript'%3E%3C/script%3E"));